Gembloux, Belgium
Current Conditions -  °F | °C
As of 9:20 PM on Thursday 29 Jan 2015 (Local Time) from EBCI Reporting Station
Light Snow Light Snow  
Wind Chill: 28°   Ceiling: 700
Heat Index: 36°   Visibility: 6mi
Dew Point: 34°   Wind: 10mph
Humidity: 93%   Direction: 210°SSW
Pressure: 28.76"   Gusts: NA
Location:  50.56°N, 4.7°E
Report Text: EBCI 292020Z 21009KT 9999 -RASN FEW004 BKN007 02/01 Q0974 TEMPO 4000 -SHSN BKN004
Loading
Personal Weather Stations






























Interactive Weather Map New forecast layout! Learn more

10-Day Weather Forecast

Advertisements
Track Severe Weather on mobile